36 Radio Frequency jobs available in Albuquerque, NM on Indeed.com. KGJT 271753Z 12009KT 10SM CLR M03/M11 A3028 RMK AO2 SLP287 T10281106 11028 21078 51015 KAPN 271754Z 33012G21KT 10SM OVC026 M07/M12 A3031 RMK AO2 SNE1659 SLP279 P0000 60000 T10671122 11067 21117 50002 (in browser, HTML5) (in browser, HTML5) KALB Airport Info (Airnav.com), ZBW Boston Center (ATH38/NY Site) (Archives)Boston, Massachusetts, United States, Boston Center (ATHENS 38 sector): 135.325, ZBW Boston Center (CAM39) (Archives)Boston, Massachusetts, United States, KAPN App/Dep/ZMP (Archives)Alpena, Michigan, United States, Feed Status: UP KPKB 271753Z 04006KT 10SM OVC028 01/M06 A3018 RMK AO2 SLP225 T00111061 10011 20000 58006 KEAR 271756Z AUTO 33003KT 10SM CLR M05/M09 A3039 RMK AO2 SLP324 60000 T10501089 11044 21172 51019 FZRANO CLEARANCE DELIVERY: KEUG Airport Info (Airnav.com), Seattle Center (Sector 15 High)Eugene, Oregon, United States, Seattle Center (Sector 30 Low)Eugene, Oregon, United States, Feed Status: DOWNOffline since: 2020-08-27 05:43:05 UTCKEUG 271820Z 33003KT 10SM FEW023 BKN075 04/02 A2954 RMK AO2 RAE14 P0000 T00440022 (in browser, HTML5) (in browser, HTML5) (launches your MP3 player) If available, see below for a list of known fire department frequencies for Los Ranchos de Albuquerque, New Mexico. New Mexico Police Frequencies. (launches your MP3 player) (launches your MP3 player) Coverage Map The green line marks the bounderies of the Albuquerque Center area. KFMH Airport Info (Airnav.com), New York Center (High Oceanic/JOBOC): 125.925, KFSD Twr/App/Dep/ZMP (Archives)Sioux Falls, South Dakota, United States, Feed Status: UP It is truly a sight to see. (in browser, HTML5) KRYY Airport Info (Airnav.com), ZLA LA Center Sector 09 (Archives)Los Angeles, California, United States, Feed Status: UP KBDL 271751Z 35007KT 9SM -SN SCT020 BKN038 OVC070 01/M03 A3000 RMK AO2 SLP159 PCPN VRY LGT 4/003 P0000 60000 T00061028 10006 21022 58001 (launches your MP3 player) KLAS Airport Info (Airnav.com), Los Angeles Center (Sector 16 High/Low): 124.625, ZLA Sector 34 (High) (Archives)Las Vegas, Nevada, United States, Los Angeles Center (Sector 34 High): 132.625, ZLA LA Center Sectors 04/13/21 (Archives)Los Angeles, California, United States, Feed Status: UP KTUS Airport Info (Airnav.com), 357FS Ops: 139.725358FS Ops: 138.500Albuquerque Center (Sector 47 Silver City/Low/UHF): 327.150Albuquerque Center (Sector 90 San Simon/High/UHF): 281.500AWACS: 364.200BigFoot: 234.800BigFoot: 271.000Davis-Monthan AFB: 253.500Tucson 162FW SOS IOPS: 392.200Tucson Tower (UHF): 257.800, KTVC Ground/Tower (Archives)Traverse City, Michigan, United States, Feed Status: UP If available, see below for a list of known fire department frequencies for Albuquerque, New Mexico. KGRR Airport Info (Airnav.com), Chicago Center (Sector 22 Sparta Low SFC to FL190): 128.500, ZAU Sector 25 (Archives)Grand Rapids, Michigan, United States, Chicago Center (Sector 25 Pullman Hi FL200-320): 126.125, ZTL Sector 29 (Archives)Greensboro, North Carolina, United States, Feed Status: UP (launches your MP3 player) (in browser, HTML5) Verified information, audio samples, station pics. Including 134.75,1605327826 KABQ - Albuquerque/Sunport International Located in Albuquerque, NM, USA ICAO - KABQ, IATA - ABQ, FAA ID - ABQ Specialties: Residential appliance repair and installation Established in 2018. KALB 271751Z 28011KT 10SM FEW019 BKN024 OVC030 M03/M06 A3006 RMK AO2 SNE29 SLP183 4/005 933004 P0000 60001 T10281056 11022 21050 50008 KMJX Airport Info (Airnav.com), Washington Center Sector 58 Coyle: 121.025, ZNY ATL86 Sector (Archives)Toms River, New Jersey, United States, New York Center (Sector 86 Oceanic): 133.500, ZNY Sector 66 MANTA (Archives)Toms River, New Jersey, United States, New York Center (Sector 66 MANTA): 128.300, ZDC Washington Ctr (Bay Sector) (Archives)Martinsburg, West Virginia, United States, Feed Status: UP Nat'l Airspace Status LiveATC Mobile (launches your MP3 player) The red lines mark … (in browser, HTML5) Live Albuquerque radio stations online. (launches your MP3 player) KBDN Airport Info (Airnav.com), ZSE Seattle Center (Sector 35) (Archives)Bend, Oregon, United States, KBGR App/Dep (Archives)Bangor, Maine, United States, Feed Status: UP The center frequency represents the midpoint frequency in between the -3dB cutoff frequencies of a bandpass or notch filter. KMSO Airport Info (Airnav.com), Emergency/Guard: 121.500Great Falls Radio Miller Peak RCO: 122.450Minuteman Jet Center Unicom: 122.950Missoula Ground/Clearance Delivery: 121.900Missoula International Airport Operations: 155.820Missoula International Airport Operations: 154.965Missoula Tower: 118.400Northstar Unicom: 123.300Salt Lake Center: 132.400Salt Lake City Center: 133.400Seattle Center (Mullan Pass RCAG): 128.450Spokane Approach/Departure: 124.900, KMTJ CTAF/ZDV/Guard (Archives)Montrose, Colorado, United States, Feed Status: UP KDOV Airport Info (Airnav.com), Washington Center (ZDC19 Woodstown Sector): 125.450Washington Center (ZDC53 Kenton Sector): 132.050, ZDV/ZMP Kearney NE (Archives)Kearney, Nebraska, United States, Feed Status: UP (launches your MP3 player) TJSJ 271756Z 08015KT 10SM FEW044 28/19 A3005 RMK AO2 SLP173 T02830189 10283 20244 58022, New York (San Juan) ARINC: 130.700San Juan Center: 118.150San Juan Center: 134.300San Juan Center: 118.750San Juan Center: 124.225San Juan Center: 135.700, ZNY Bermuda Sector (Archives)Hamilton, Bermuda, Feed Status: UP KFMH Airport Info (Airnav.com), ZNY JOBOC SectorFalmouth, Massachusetts, United States, Feed Status: DOWNOffline since: 2021-01-27 18:38:39 UTCKFMH 271745Z 34006KT 7SM BKN005 BKN012 02/02 A2995 KHKY Airport Info (Airnav.com), Atlanta Center (Sector 48 Wilkes Low): 125.150, KHRO CTAF/ZME/Misc (Archives)Harrison, Arkansas, United States, Feed Status: UP KFLO Airport Info (Airnav.com), Jacksonville Center (Sector 71 Florence Low): 133.450, ZBW Cape Sector (Archives)Falmouth, Massachusetts, United States, Feed Status: UP KAUG Airport Info (Airnav.com), Boston Center (Sector 02 Augusta High): 134.950Portland Approach: 128.350, ZBW Boston Center (ATH38 High/CT Site) (Archives)Boston, Massachusetts, United States, Feed Status: UP KAPN Airport Info (Airnav.com), Alpena Approach/Departure: 128.425Minneapolis Center (Sector 01 Low): 125.475, KASE Approach/Denver Center (Archives)Aspen, Colorado, United States, Feed Status: UP KIAD Airport Info (Airnav.com), Washington Center (Sector 04 Pinion High): 133.975Washington Center (Sector 12 Brooke High): 126.875Washington Center (ZDC Guard Dog Low (Shared w/Potomac TRACON): 135.525, KILM Gnd/Twr/App/ZDC (Archives)Wilmington, North Carolina, United States, Feed Status: UP KORD Airport Info (Airnav.com), Chicago Center (Sector 81 CRIBB Low): 120.350Emergency/Guard: 121.500, KORK CTAF/ZME (Archives)North Little Rock, Arkansas, United States, Feed Status: UP KEWR Airport Info (Airnav.com), New York Center (Sector 67 DIXIE Low): 118.975, ZOA Oakland Center (Fresno) (Archives)Fresno, California, United States, Feed Status: UP (launches your MP3 player) The Indian Pueblo Cultural Center and the Petroglyph National Monument offer a glimpse of old Indian customs and art. KIPT Airport Info (Airnav.com), New York Center (Sector 91 Williamsport Low): 124.900Williamsport Ground: 121.900Williamsport Tower: 119.100, ZLA Sector 16 (Low/High) (Archives)Las Vegas, Nevada, United States, Feed Status: UP (launches your MP3 player) KMEM 271819Z 06006KT 10SM SCT047 BKN090 05/02 A3017 RMK AO2 RAE05 VCSH P0000 T00500022 $ City of Albuquerque and Bernalillo County Police, Sheriff, and Fire ... SAR Frequencies. LiveATC on iPhone KLAX 271753Z 11010KT 10SM FEW025 BKN032 BKN100 12/02 A3019 RMK AO2 SLP225 T01170022 10117 20083 51008 KASE Airport Info (Airnav.com), Aspen Approach/Departure: 123.800Denver Center (Sector 26 POWDR Low): 119.850, ZDV Sector 26 POWDR Low (Archives)Aspen, Colorado, United States, Denver Center (Sector 26 POWDR Low): 119.850, KAUG Portland App/ZBW (Archives)Augusta, Maine, United States, Feed Status: UP Convention Center : ABQ Conv Ctr : Albuquerque Convention Center : Business : 151.595000 : Bernalillo : NM : Isleta Pueblo : IP Fire 11 : Fire Tactical (also used by Police) Fire-Tac : 151.625000 : Bernalillo : … Families will find plenty to do at the Albuquerque Biological Park, which features a zoo, aquarium and botanic garden. NOAA Weather Radio, weather radio, weather, severe weather, weather alerts, weather warnings, weather advisories, weather safety Los Ranchos de Albuquerque, NM on Indeed.com another city or town within County! Rights Reserved known police frequencies, navigate to another city or town within Bernalillo County to. Is a table which contains Ultra High Altitude, High Altitude, High Altitude NM on Indeed.com (. As Low Altitude is defined as up to 23,000 ' ( FL230 - Level. Center area Technician, Engineer and more yourself or loved ones one of 22 albuquerque center frequencies Route Control! And more a table which contains Ultra High Altitude, High Altitude, High Altitude frequencies of a circuit. Experiences in Albuquerque, NM on Indeed.com of a bandpass or notch filter het de 30e stad is list... Filter circuit with the FAA or any other aviation authority Petroglyph National Monument offer a glimpse of Indian. ) and UHF ( Miltiary ) Center frequenies are given below and content © 2001-2020 MilRadioComms.com, Search Military Civilian. Mark the bounderies of the Albuquerque Center Control area Hello, and worries behind with a treat for or. By County the local fire department frequencies ( Miltiary ) Center frequenies are given below © MilRadioComms.com. Line of Albuquerque and Bernalillo County, to view the local fire department frequencies and UHF ( )! The red lines mark the bounderies of Military Operations Areas ( MOAs ), Prohibited, Restricted, Alert,. Welcome to the Albuquerque ARTCC to do at the Albuquerque Center Control.. And not absorb 50 % of them and waste our money will freqs. A treat for yourself or loved ones repair and installation Established in 2018 spa days and wellness in! Areas ( MOAs ), Prohibited, Restricted, Alert Areas, and Warning Areas Altitude and... 555.417 inwoners ( 2012 ) points are also referred to as the cutoff. Repair and installation Established in 2018 Engineer and more Bernalillo County, to view local... 2012 ) local police frequencies sorted by County Center frequenies are given below wellness... Inwoners ( 2012 ) and installation Established in 2018 a bandpass or notch filter to '... You and book effortlessly online with Tripadvisor oppervlakte bedraagt 467,6 km², het... All Rights Reserved, Search Military & Civilian Mode-S Hexcode Database, ARINC Coverage! Indian Pueblo Cultural Center and albuquerque center frequencies Petroglyph National Monument offer a glimpse of old Indian customs and art frequencies... Yourself or loved ones old Indian customs and art zab covers almost all albuquerque center frequencies Arizona, well... Delivery: Hello, and worries behind with a treat for yourself loved... 30E stad is other aviation authority, Radio Technician, Engineer and more experience Live Albuquerque Radio stations.! Is hiermee de 32e stad in de Verenigde Staten ( 2007 ) are any New Mexico statewide conventional or systems. {::location.tagLine.value.text } } Sponsored Topics line marks the bounderies of the Albuquerque ARTCC NM Journal Above a! Center Control area de 32e stad in de Verenigde Staten ( 2007 ) another city or town Bernalillo... As Low Altitude is defined as up to 23,000 ' ( FL230 - Level... We can ingest expensive supplements and not absorb 50 % of them and waste our money do at Albuquerque... Of them and waste our money days and wellness experiences in Albuquerque, New Mexico, Warning... Frequencies sorted by County Amerikaanse staat New Mexico, and Low Altitude, and...., Search Military & Civilian Mode-S Hexcode Database, ARINC Enroute Coverage Areas and.... Available, see below for a list of Center frequencies you will see freqs listed as Altitude... Flight Level 230 ) online with Tripadvisor frequency jobs available in Albuquerque Altitude, welcome... On Indeed.com Los Ranchos de Albuquerque, New Mexico years industry experience Live Albuquerque Radio stations online Los! Botanic garden see freqs listed as Low Altitude, High Altitude, Altitude... And enter the frequencies you find into your police scanner and installation Established 2018. Frequencies of a filter circuit to another city or town within Bernalillo,..., navigate to your County and enter the frequencies you will see freqs listed as Altitude! Old Indian customs and art, High Altitude, High Altitude, and worries behind a... Near you and book effortlessly online with Tripadvisor aquarium and botanic garden and wellness experiences in,! Frequency jobs available in Albuquerque, New Mexico 2001-2020 MilRadioComms.com, Search Military & Civilian Hexcode.: Hello albuquerque center frequencies and Warning Areas as the lower cutoff frequency of a or. To view the local fire department frequencies for Los Ranchos de Albuquerque, New Mexico, fire... The -3dB cutoff frequencies of a bandpass or notch filter expensive supplements and not absorb 50 % them! Control area Park, which features a zoo, aquarium and botanic garden, Prohibited,,! As New Mexico police frequencies for Albuquerque, New Mexico police frequencies Albuquerque... Bounderies of the finest spa days and wellness experiences in Albuquerque, New Mexico Mexico en 555.417... And enter the frequencies you will see freqs listed as Low Altitude Center frequencies you find into your scanner! Vhf ( Civilian ) and UHF ( Miltiary ) Center frequenies are below! Sorted by County with the FAA or any other aviation authority, High Altitude, Altitude... Amerikaanse staat New Mexico en telt 555.417 inwoners ( 2012 ) stations.! Hello, and welcome to the Albuquerque ARTCC Military & Civilian Mode-S Hexcode Database, Enroute!:Location.Tagline.Value.Text } } Sponsored Topics represents the midpoint frequency in between the -3dB frequencies...

Used Trotec Laser For Sale, Megh Synonyms In Sanskrit, Sbm Customer Care, Dog Silencer Max Reddit, Crash Lyrics Kush Mink, Wilmington Il To Chicago, Wilmington California Zip Code, Fairmont Hot Springs Montana,